Gunlock, Kentucky
Current Conditions -  °F | °C
As of 2:55 PM on Sunday 23 Nov 2014 (Local Time) from KPBX Reporting Station
Drizzle Drizzle  
Wind Chill: 55°   Ceiling: 10000
Heat Index: 55°   Visibility: 10mi
Dew Point: 50°   Wind: 7mph
Humidity: 85%   Direction: 140°SE
Pressure: 29.8"   Gusts: NA
Location:  37.55°N, 82.92°W
Report Text: KPBX 231955Z AUTO 14006KT 10SM -DZ SCT070 OVC100 13/10 A2980 RMK AO2 T01250100
Loading
Personal Weather Stations






























Interactive Weather Map New forecast layout! Learn more

10-Day Weather Forecast

Advertisements
Track Severe Weather on mobile